Kempton Park, South Africa
Current Conditions -  °F | °C
As of 5:30 AM on Tuesday 23 Dec 2014 (Local Time) from FAOR Reporting Station
Clear Clear  
Wind Chill: 64°   Ceiling: Unl
Heat Index: 64°   Visibility: 6mi
Dew Point: 61°   Wind: 15mph
Humidity: 88%   Direction: 360°N
Pressure: 30.21"   Gusts: NA
Location:  26.11°S, 28.24°E
Report Text: FAOR 230330Z 36013KT CAVOK 18/16 Q1023 NOSIG
Loading
Personal Weather Stations






























Interactive Weather Map New forecast layout! Learn more

10-Day Weather Forecast

Advertisements
Track Severe Weather on mobile